Terminal Aerodrome Forecast
Issued by NWS Louisville, KY

Home | Current Version | Previous Version | Text Only | Print | Product List | Glossary On
Versions: 1 2 3 4 5 6 7 8 9 10 11 12 13 14 15 16 17 18
000
FTUS43 KLMK 242320
TAFBWG
TAF
KBWG 242320Z 2500/2524 22010KT P6SM SCT035
     FM250100 20004KT P6SM FEW080 SCT250
     FM250900 00000KT 4SM BR BKN250
     FM251400 22008KT P6SM SCT040=

USA.gov is the U.S. government's official web portal to all federal, state and local government web resources and services.